Goltry, Oklahoma
Current Conditions -  °F | °C
As of 7:58 PM on Saturday 22 Nov 2014 (Local Time) from KEND Reporting Station
Clear Clear  
Wind Chill: 53°   Ceiling: Unl
Heat Index: 53°   Visibility: 10mi
Dew Point: 52°   Wind: 13mph
Humidity: 95%   Direction: 160°SSE
Pressure: 29.71"   Gusts: NA
Location:  36.53°N, 98.15°W
Report Text: KEND 230158Z AUTO 16011KT 10SM CLR 12/11 A2971 RMK AO2 SLP061 T01170110 $
Loading
Personal Weather Stations






























Interactive Weather Map New forecast layout! Learn more

10-Day Weather Forecast

Advertisements
Track Severe Weather on mobile